Time;durP1;ratioP1;P1;durP2;ratioP2;P2;SDS_P1;SDS_P2;PMS_P1;PMS_P2;Temp;Humidity;BMP_temperature;BMP_pressure;BME280_temperature;BME280_humidity;BME280_pressure;Samples;Min_cycle;Max_cycle;Signal;HPM_P1;HPM_P2
2021/05/06 00:07:16;;;;;;;6.95;5.03;;;6.60;92.30;;;;;;6225735;23;20020;-65
2021/05/06 00:31:46;;;;;;;6.60;5.28;;;6.70;92.90;;;;;;6213944;23;20016;-65
2021/05/06 00:34:07;;;;;;;7.17;6.40;;;6.60;92.90;;;;;;6214616;23;20082;-64
2021/05/06 00:36:34;;;;;;;7.93;6.45;;;6.70;93.00;;;;;;6214728;23;19997;-65
2021/05/06 00:39:07;;;;;;;7.22;6.13;;;6.60;92.90;;;;;;6213974;23;20302;-64
2021/05/06 00:44:52;;;;;;;8.18;6.38;;;6.60;93.20;;;;;;6214599;23;20019;-65
2021/05/06 00:58:03;;;;;;;10.10;7.57;;;6.30;93.30;;;;;;6224889;23;20012;-65
2021/05/06 01:00:59;;;;;;;9.30;7.70;;;6.30;93.40;;;;;;6214324;23;20004;-66
2021/05/06 01:06:26;;;;;;;10.20;7.85;;;6.40;93.30;;;;;;6217809;23;20012;-65
2021/05/06 01:08:55;;;;;;;9.35;7.30;;;6.40;93.40;;;;;;6213731;23;20028;-66
2021/05/06 01:14:06;;;;;;;9.77;8.23;;;6.50;93.50;;;;;;6223283;23;20024;-66
2021/05/06 01:16:31;;;;;;;10.98;8.15;;;6.50;93.60;;;;;;6214253;23;20103;-66
2021/05/06 01:18:57;;;;;;;10.20;8.20;;;6.50;93.50;;;;;;6212894;23;20429;-66
2021/05/06 01:21:22;;;;;;;8.90;8.05;;;6.50;93.60;;;;;;6213873;23;20003;-66
2021/05/06 01:23:49;;;;;;;9.77;8.63;;;6.60;93.60;;;;;;6214288;23;20001;-65
2021/05/06 01:26:20;;;;;;;10.95;8.38;;;6.60;93.50;;;;;;6214827;23;20005;-65
2021/05/06 01:28:50;;;;;;;7.60;6.85;;;6.60;93.50;;;;;;6214039;23;20033;-65
2021/05/06 01:31:19;;;;;;;8.80;8.00;;;6.60;93.60;;;;;;6214428;23;20506;-66
2021/05/06 01:34:06;;;;;;;8.57;7.78;;;6.60;93.50;;;;;;6213308;23;20311;-70
2021/05/06 01:36:59;;;;;;;9.63;8.63;;;6.60;93.40;;;;;;6214105;23;20453;-65
2021/05/06 01:39:52;;;;;;;9.85;8.90;;;6.60;93.50;;;;;;6213737;23;20012;-66
2021/05/06 01:42:25;;;;;;;9.50;8.55;;;6.60;93.60;;;;;;6213682;23;20001;-65
2021/05/06 01:45:17;;;;;;;9.48;8.48;;;6.60;93.60;;;;;;6214095;23;20588;-65
2021/05/06 01:47:55;;;;;;;9.13;8.30;;;6.70;93.70;;;;;;6214094;23;20007;-65
2021/05/06 02:01:02;;;;;;;8.95;8.15;;;6.60;93.80;;;;;;6214841;23;20008;-65
2021/05/06 02:03:28;;;;;;;9.52;8.63;;;6.60;93.90;;;;;;6213737;23;20076;-65
2021/05/06 02:05:54;;;;;;;9.77;8.52;;;6.50;93.90;;;;;;6214006;23;20039;-65
2021/05/06 02:08:21;;;;;;;9.98;9.02;;;6.50;94.00;;;;;;6216684;23;20000;-65
2021/05/06 02:10:47;;;;;;;10.27;9.35;;;6.50;94.00;;;;;;6215271;23;20004;-65
2021/05/06 02:13:15;;;;;;;9.07;7.95;;;6.50;94.10;;;;;;6216152;23;20421;-65
2021/05/06 02:15:44;;;;;;;8.35;7.55;;;6.50;94.10;;;;;;6215834;23;20381;-64
2021/05/06 02:18:10;;;;;;;9.32;8.52;;;6.40;94.10;;;;;;6215300;23;20028;-65
2021/05/06 02:20:36;;;;;;;9.63;8.63;;;6.40;94.20;;;;;;6216274;23;20008;-65
2021/05/06 02:23:04;;;;;;;8.55;7.75;;;6.40;94.20;;;;;;6215517;23;20004;-64
2021/05/06 02:25:30;;;;;;;9.07;8.27;;;6.50;94.30;;;;;;6216554;23;20000;-65
2021/05/06 02:27:55;;;;;;;9.02;8.18;;;6.50;94.30;;;;;;6214559;23;20001;-65
2021/05/06 02:30:21;;;;;;;8.38;7.57;;;6.40;94.30;;;;;;6215417;23;20013;-65
2021/05/06 02:32:47;;;;;;;7.93;7.15;;;6.40;94.20;;;;;;6215805;23;20001;-65
2021/05/06 02:35:13;;;;;;;8.02;7.30;;;6.40;94.30;;;;;;6215679;23;20027;-65
2021/05/06 02:37:39;;;;;;;8.45;7.60;;;6.40;94.30;;;;;;6214938;23;20338;-65
2021/05/06 02:40:07;;;;;;;9.95;8.02;;;6.40;94.30;;;;;;6216115;23;20059;-66
2021/05/06 02:42:32;;;;;;;7.60;6.90;;;6.40;94.40;;;;;;6214129;23;20028;-65
2021/05/06 02:44:58;;;;;;;8.05;7.25;;;6.30;94.30;;;;;;6214987;23;20429;-66
2021/05/06 02:47:24;;;;;;;8.25;7.45;;;6.20;94.30;;;;;;6216352;23;20075;-66
2021/05/06 02:49:51;;;;;;;8.70;7.90;;;6.20;94.30;;;;;;6214526;23;20004;-66
2021/05/06 02:52:30;;;;;;;8.73;7.82;;;6.20;94.40;;;;;;6215026;23;20004;-64
2021/05/06 02:55:36;;;;;;;8.18;7.38;;;6.20;94.50;;;;;;6215856;23;20012;-66
2021/05/06 02:57:56;;;;;;;8.57;7.55;;;6.20;94.40;;;;;;6212865;23;20039;-66
2021/05/06 03:03:06;;;;;;;10.48;8.30;;;6.10;94.40;;;;;;6215845;23;20092;-65
2021/05/06 03:05:34;;;;;;;8.82;7.93;;;6.20;94.50;;;;;;6213081;23;20319;-65
2021/05/06 03:08:05;;;;;;;8.65;7.85;;;6.10;94.80;;;;;;6215652;23;20004;-64
2021/05/06 03:10:43;;;;;;;8.30;7.50;;;6.10;94.60;;;;;;6215577;23;20075;-65
2021/05/06 03:23:58;;;;;;;9.00;8.20;;;5.60;94.90;;;;;;6225385;23;20021;-64
2021/05/06 03:26:23;;;;;;;9.25;8.35;;;5.50;95.00;;;;;;6214825;23;20421;-64
2021/05/06 03:28:54;;;;;;;8.50;7.70;;;5.40;95.10;;;;;;6215369;23;20000;-64
2021/05/06 03:42:22;;;;;;;9.07;8.18;;;5.10;95.60;;;;;;6214499;23;20011;-65
2021/05/06 03:50:34;;;;;;;8.93;8.05;;;4.90;95.70;;;;;;6215665;23;20063;-65
2021/05/06 04:17:14;;;;;;;14.68;13.13;;;4.70;96.30;;;;;;6224184;23;20043;-64
2021/05/06 04:27:17;;;;;;;13.93;12.63;;;4.90;96.70;;;;;;6214808;23;20429;-65
2021/05/06 04:37:48;;;;;;;16.27;14.68;;;5.40;96.60;;;;;;6223789;23;20004;-65
2021/05/06 04:40:39;;;;;;;14.85;13.55;;;5.50;96.60;;;;;;6213236;23;20005;-65
2021/05/06 04:54:08;;;;;;;15.52;13.93;;;5.70;96.30;;;;;;6214483;23;20023;-66
2021/05/06 04:56:50;;;;;;;14.57;13.18;;;5.80;96.30;;;;;;6214551;23;20001;-66
2021/05/06 05:04:31;;;;;;;16.13;14.48;;;6.10;96.10;;;;;;6214834;23;20341;-65
2021/05/06 05:07:22;;;;;;;16.08;14.57;;;6.10;95.90;;;;;;6212120;23;20373;-66
2021/05/06 05:20:37;;;;;;;18.20;16.40;;;6.40;95.70;;;;;;6213551;23;20096;-65
2021/05/06 05:27:51;;;;;;;19.58;17.67;;;6.40;95.20;;;;;;6224069;23;20421;-65
2021/05/06 05:30:18;;;;;;;18.65;16.95;;;6.50;95.20;;;;;;6214226;23;19996;-65
2021/05/06 05:32:44;;;;;;;19.42;17.40;;;6.50;95.10;;;;;;6213117;23;20422;-65
2021/05/06 05:35:18;;;;;;;19.00;17.00;;;6.50;95.10;;;;;;6212745;23;20016;-65
2021/05/06 05:37:48;;;;;;;19.33;17.27;;;6.40;95.10;;;;;;6213931;23;20080;-65
2021/05/06 05:40:30;;;;;;;22.17;19.95;;;6.40;95.10;;;;;;6211870;23;20040;-65
2021/05/06 05:56:00;;;;;;;27.27;24.17;;;6.90;95.00;;;;;;6215556;23;20019;-66
2021/05/06 05:58:26;;;;;;;27.67;24.77;;;7.00;94.90;;;;;;6213920;23;20020;-65
2021/05/06 06:00:51;;;;;;;28.15;25.17;;;7.20;94.80;;;;;;6214021;23;20015;-65
2021/05/06 06:03:17;;;;;;;25.73;23.08;;;7.40;94.70;;;;;;6214736;23;19996;-66
2021/05/06 06:05:42;;;;;;;47.13;23.58;;;7.50;94.50;;;;;;6216013;23;20009;-66
2021/05/06 06:08:08;;;;;;;24.02;21.55;;;7.60;94.40;;;;;;6215074;23;20008;-65
2021/05/06 06:10:34;;;;;;;24.40;21.90;;;7.70;94.20;;;;;;6215541;23;20000;-67
2021/05/06 06:12:59;;;;;;;26.63;23.88;;;7.80;94.10;;;;;;6213858;23;20437;-68
2021/05/06 06:17:52;;;;;;;24.45;21.95;;;7.90;94.10;;;;;;6215489;23;20063;-64
2021/05/06 06:20:18;;;;;;;22.77;20.52;;;7.90;93.90;;;;;;6214577;23;20004;-67
2021/05/06 06:22:43;;;;;;;25.10;22.35;;;8.00;93.60;;;;;;6213490;23;20027;-66
2021/05/06 06:25:10;;;;;;;88.57;24.98;;;8.00;93.50;;;;;;6215445;23;20001;-68
2021/05/06 06:27:36;;;;;;;25.25;22.77;;;8.10;93.60;;;;;;6215127;23;20072;-65
2021/05/06 06:30:03;;;;;;;24.58;22.27;;;8.20;93.60;;;;;;6215911;23;20036;-66
2021/05/06 06:32:28;;;;;;;23.33;21.13;;;8.30;93.50;;;;;;6216168;23;20329;-69
2021/05/06 06:34:54;;;;;;;157.38;32.30;;;8.50;93.30;;;;;;6214380;23;20008;-69
2021/05/06 06:37:20;;;;;;;22.48;20.23;;;8.60;93.20;;;;;;6216184;23;20003;-68
2021/05/06 06:39:45;;;;;;;22.20;19.90;;;8.70;93.00;;;;;;6212421;23;20004;-68
2021/05/06 06:42:11;;;;;;;22.55;20.23;;;8.80;92.80;;;;;;6214193;23;20196;-68
2021/05/06 06:44:38;;;;;;;100.88;27.50;;;8.80;92.60;;;;;;6215749;23;20083;-68
2021/05/06 06:47:06;;;;;;;23.70;21.00;;;8.90;92.50;;;;;;6215817;23;20007;-65
2021/05/06 06:49:34;;;;;;;23.85;21.58;;;8.90;92.40;;;;;;6212381;23;20004;-69
2021/05/06 06:52:01;;;;;;;22.92;20.67;;;8.90;92.00;;;;;;6212547;23;20003;-68
2021/05/06 06:54:28;;;;;;;23.05;20.75;;;9.00;92.00;;;;;;6213963;23;20442;-69
2021/05/06 06:56:54;;;;;;;22.15;19.85;;;9.00;91.80;;;;;;6212990;23;20004;-68
2021/05/06 06:59:20;;;;;;;23.50;21.27;;;9.00;91.90;;;;;;6214107;23;20032;-67
2021/05/06 07:01:46;;;;;;;22.88;20.58;;;9.10;92.00;;;;;;6213994;23;20004;-67
2021/05/06 07:04:12;;;;;;;22.92;20.65;;;9.10;91.60;;;;;;6212925;23;20473;-69
2021/05/06 07:06:38;;;;;;;23.13;20.02;;;9.10;91.50;;;;;;6213377;23;20088;-70
2021/05/06 07:09:06;;;;;;;21.60;19.55;;;9.20;91.60;;;;;;6213905;23;20076;-69
2021/05/06 07:11:32;;;;;;;23.20;20.80;;;9.30;91.40;;;;;;6212734;23;20011;-70
2021/05/06 07:13:57;;;;;;;23.42;21.13;;;9.30;90.90;;;;;;6213435;23;20329;-70
2021/05/06 07:16:23;;;;;;;20.83;18.83;;;9.40;91.00;;;;;;6215603;23;20013;-69
2021/05/06 07:18:48;;;;;;;18.73;16.60;;;9.40;91.10;;;;;;6216556;23;20429;-70
2021/05/06 07:21:14;;;;;;;18.95;17.15;;;9.30;90.90;;;;;;6213192;23;20696;-69
2021/05/06 07:23:39;;;;;;;18.08;16.17;;;9.30;91.00;;;;;;6214808;23;20510;-69
2021/05/06 07:26:06;;;;;;;25.35;18.25;;;9.50;91.10;;;;;;6215041;23;20024;-71
2021/05/06 07:28:34;;;;;;;19.27;17.38;;;9.60;90.80;;;;;;6213799;23;20001;-69
2021/05/06 07:31:02;;;;;;;20.55;18.42;;;9.80;90.50;;;;;;6214480;23;20011;-69
2021/05/06 07:33:29;;;;;;;21.42;18.25;;;9.90;90.30;;;;;;6215474;23;20001;-69
2021/05/06 07:35:55;;;;;;;17.73;16.00;;;9.90;90.10;;;;;;6215010;23;20070;-69
2021/05/06 07:38:21;;;;;;;17.70;15.98;;;9.90;89.80;;;;;;6214731;23;19997;-69
2021/05/06 07:40:47;;;;;;;18.60;16.73;;;9.90;90.20;;;;;;6213415;23;20008;-70
2021/05/06 07:43:12;;;;;;;17.80;15.80;;;9.90;90.40;;;;;;6215028;23;20072;-69
2021/05/06 07:45:38;;;;;;;15.65;14.15;;;10.00;90.30;;;;;;6213874;23;20051;-68
2021/05/06 07:48:04;;;;;;;15.98;14.25;;;10.20;90.30;;;;;;6214949;23;20004;-68
2021/05/06 07:50:30;;;;;;;13.98;12.57;;;10.30;90.30;;;;;;6214904;23;20005;-65
2021/05/06 07:55:48;;;;;;;;;;;10.40;89.10;;;;;;6212753;23;20079;-67
2021/05/06 07:58:14;;;;;;;14.13;12.73;;;10.60;88.60;;;;;;6215069;23;19899;-67
2021/05/06 08:00:40;;;;;;;13.40;12.00;;;10.50;88.20;;;;;;6212448;23;20005;-67
2021/05/06 08:03:07;;;;;;;12.02;10.82;;;10.60;87.90;;;;;;6214837;23;20426;-68
2021/05/06 08:05:33;;;;;;;10.50;9.50;;;10.70;87.50;;;;;;6214436;23;20487;-68
2021/05/06 08:07:58;;;;;;;10.30;9.30;;;10.80;86.70;;;;;;6214373;23;20076;-68
2021/05/06 08:10:26;;;;;;;8.63;7.85;;;10.80;85.50;;;;;;6213615;23;20015;-67
2021/05/06 08:12:54;;;;;;;9.10;8.02;;;10.70;85.50;;;;;;6212037;23;20110;-68
2021/05/06 08:15:20;;;;;;;9.70;8.02;;;10.70;85.20;;;;;;6214898;23;20013;-68
2021/05/06 08:17:45;;;;;;;9.70;8.43;;;10.90;84.70;;;;;;6214585;23;20008;-68
2021/05/06 08:20:13;;;;;;;8.93;7.95;;;11.10;84.80;;;;;;6213678;23;20011;-68
2021/05/06 08:22:40;;;;;;;8.90;7.40;;;11.30;84.40;;;;;;6212879;23;20013;-68
2021/05/06 08:25:07;;;;;;;7.88;7.07;;;11.40;84.30;;;;;;6214531;23;20087;-68
2021/05/06 08:27:33;;;;;;;7.68;6.88;;;11.40;83.70;;;;;;6212162;23;20420;-69
2021/05/06 08:30:02;;;;;;;7.15;6.45;;;11.40;83.20;;;;;;6214570;23;20001;-69
2021/05/06 08:32:28;;;;;;;8.27;6.00;;;11.40;82.30;;;;;;6214876;23;20047;-69
2021/05/06 08:34:54;;;;;;;7.03;6.32;;;11.30;82.70;;;;;;6213372;23;20012;-68
2021/05/06 08:37:20;;;;;;;6.68;6.07;;;11.10;82.60;;;;;;6214895;23;20000;-69
2021/05/06 08:39:46;;;;;;;7.43;6.65;;;11.10;82.30;;;;;;6214339;23;20417;-68
2021/05/06 08:42:14;;;;;;;7.47;6.30;;;11.10;81.30;;;;;;6213402;23;20080;-69
2021/05/06 08:44:41;;;;;;;6.75;6.15;;;11.10;81.70;;;;;;6213026;23;20005;-69
2021/05/06 08:47:12;;;;;;;7.80;6.32;;;11.10;81.60;;;;;;6213050;23;20031;-66
2021/05/06 08:49:39;;;;;;;7.63;6.28;;;11.10;81.80;;;;;;6213500;23;19997;-66
2021/05/06 08:52:07;;;;;;;10.60;7.20;;;11.10;82.20;;;;;;6212843;23;20004;-66
2021/05/06 08:54:33;;;;;;;9.95;7.50;;;11.40;82.30;;;;;;6213871;23;20032;-64
2021/05/06 08:56:59;;;;;;;8.15;6.95;;;11.60;82.30;;;;;;6213690;23;20004;-66
2021/05/06 08:59:28;;;;;;;7.63;6.90;;;11.80;81.30;;;;;;6215012;23;20349;-68
2021/05/06 09:01:55;;;;;;;9.07;6.75;;;12.00;80.20;;;;;;6214023;23;20007;-67
2021/05/06 09:04:21;;;;;;;9.10;7.60;;;12.20;79.60;;;;;;6213571;23;20055;-68
2021/05/06 09:07:04;;;;;;;10.10;8.73;;;12.30;78.90;;;;;;6213961;23;20362;-67
2021/05/06 09:09:32;;;;;;;10.35;7.15;;;12.40;79.00;;;;;;6213613;23;20011;-69
2021/05/06 09:12:02;;;;;;;8.35;7.50;;;12.40;78.10;;;;;;6213598;23;20032;-71
2021/05/06 09:14:40;;;;;;;8.93;7.85;;;12.40;78.30;;;;;;6210573;23;20377;-66
2021/05/06 09:17:22;;;;;;;8.25;7.38;;;12.30;77.30;;;;;;6213251;23;20000;-67
2021/05/06 09:20:14;;;;;;;7.93;7.15;;;12.30;77.50;;;;;;6214160;23;20083;-67
2021/05/06 09:22:42;;;;;;;8.50;7.65;;;12.50;78.50;;;;;;6212544;23;20008;-67
2021/05/06 09:25:32;;;;;;;8.77;7.60;;;12.80;78.50;;;;;;6213113;23;20087;-65
2021/05/06 09:28:14;;;;;;;8.65;7.32;;;13.20;76.30;;;;;;6214164;23;20008;-66
2021/05/06 09:30:59;;;;;;;10.85;8.50;;;13.40;74.00;;;;;;6211887;23;20091;-67
2021/05/06 09:33:36;;;;;;;9.48;7.10;;;13.30;73.80;;;;;;6214234;23;20000;-66
2021/05/06 09:36:17;;;;;;;9.30;8.18;;;13.10;72.60;;;;;;6213994;23;20059;-65
2021/05/06 09:38:54;;;;;;;7.97;7.20;;;13.00;72.20;;;;;;6213418;23;20083;-65
2021/05/06 09:41:23;;;;;;;10.73;8.32;;;13.00;71.80;;;;;;6214911;23;20001;-67
2021/05/06 09:43:49;;;;;;;10.15;7.95;;;13.00;72.30;;;;;;6212549;23;20092;-67
2021/05/06 09:46:35;;;;;;;8.77;7.57;;;13.10;71.70;;;;;;6213409;23;20000;-64
2021/05/06 09:49:14;;;;;;;9.52;8.57;;;13.00;71.70;;;;;;6214293;23;20001;-65
2021/05/06 09:51:50;;;;;;;8.88;7.57;;;12.90;72.30;;;;;;6211674;23;20304;-65
2021/05/06 09:54:20;;;;;;;8.95;7.38;;;13.00;72.80;;;;;;6212658;23;20237;-65
2021/05/06 09:56:54;;;;;;;8.23;7.43;;;13.10;71.40;;;;;;6212667;23;20001;-66
2021/05/06 09:59:25;;;;;;;8.63;7.35;;;13.30;69.70;;;;;;6213685;23;20032;-66
2021/05/06 10:01:51;;;;;;;9.13;8.00;;;13.40;68.30;;;;;;6213966;23;20369;-66
2021/05/06 10:04:25;;;;;;;9.05;7.32;;;13.40;68.00;;;;;;6214126;23;20000;-66
2021/05/06 10:07:07;;;;;;;8.32;7.28;;;13.60;68.70;;;;;;6213033;23;20001;-66
2021/05/06 10:09:33;;;;;;;10.77;8.52;;;13.80;68.30;;;;;;6213916;23;20092;-66
2021/05/06 10:12:00;;;;;;;9.43;8.32;;;13.80;67.60;;;;;;6214251;23;20434;-66
2021/05/06 10:14:26;;;;;;;8.73;7.72;;;13.90;68.20;;;;;;6213079;23;20009;-66
2021/05/06 10:16:52;;;;;;;10.23;7.35;;;14.00;67.40;;;;;;6213869;23;20032;-65
2021/05/06 10:19:18;;;;;;;9.90;7.50;;;14.00;66.20;;;;;;6214101;23;20433;-68
2021/05/06 10:21:45;;;;;;;8.15;7.22;;;14.00;65.60;;;;;;6211925;23;20000;-66
2021/05/06 10:24:15;;;;;;;13.00;8.60;;;14.00;67.40;;;;;;6213844;23;20444;-65
2021/05/06 10:26:41;;;;;;;10.05;7.72;;;14.00;67.70;;;;;;6211708;23;20008;-65
2021/05/06 10:29:06;;;;;;;8.88;7.97;;;14.10;67.00;;;;;;6215939;23;20352;-66
2021/05/06 10:31:34;;;;;;;8.30;6.88;;;14.10;65.00;;;;;;6216023;23;20008;-65
2021/05/06 10:34:00;;;;;;;9.73;7.88;;;14.00;64.60;;;;;;6215003;23;20084;-66
2021/05/06 10:36:26;;;;;;;9.73;8.07;;;13.90;63.10;;;;;;6215957;23;20028;-66
2021/05/06 10:38:51;;;;;;;9.63;7.93;;;13.80;64.10;;;;;;6215713;23;20005;-66
2021/05/06 10:41:26;;;;;;;9.32;8.38;;;13.70;65.00;;;;;;6214864;23;20433;-66
2021/05/06 10:44:01;;;;;;;10.50;8.02;;;13.60;65.40;;;;;;6215869;23;20008;-65
2021/05/06 10:46:56;;;;;;;12.65;7.90;;;13.60;65.90;;;;;;6216112;23;20347;-65
2021/05/06 10:49:29;;;;;;;8.40;7.18;;;13.50;66.50;;;;;;6215358;23;19997;-66
2021/05/06 10:52:00;;;;;;;8.80;7.32;;;13.60;65.30;;;;;;6215830;23;20094;-64
2021/05/06 10:54:32;;;;;;;8.02;7.15;;;13.70;64.30;;;;;;6215761;23;20035;-65
2021/05/06 10:57:02;;;;;;;8.15;6.63;;;13.80;64.20;;;;;;6215683;23;19996;-65
2021/05/06 10:59:31;;;;;;;8.63;6.90;;;14.00;63.50;;;;;;6214202;23;20038;-65
2021/05/06 11:01:58;;;;;;;7.60;6.80;;;14.30;63.30;;;;;;6214839;23;20005;-65
2021/05/06 11:04:38;;;;;;;7.72;6.88;;;14.40;62.70;;;;;;6214220;23;20326;-65
2021/05/06 11:07:15;;;;;;;7.38;6.60;;;14.40;62.70;;;;;;6215505;23;20001;-66
2021/05/06 11:09:46;;;;;;;6.70;6.07;;;14.50;63.30;;;;;;6212849;23;20325;-66
2021/05/06 11:12:20;;;;;;;8.20;7.40;;;14.60;63.30;;;;;;6215325;23;20422;-66
2021/05/06 11:15:21;;;;;;;9.32;7.03;;;14.80;63.40;;;;;;6213250;23;20055;-66
2021/05/06 11:17:46;;;;;;;8.75;7.63;;;14.90;64.40;;;;;;6214505;23;20471;-65
2021/05/06 11:20:12;;;;;;;7.30;5.97;;;14.70;63.10;;;;;;6213807;23;20036;-66
2021/05/06 11:22:43;;;;;;;5.75;5.00;;;14.40;63.30;;;;;;6214929;23;20004;-66
2021/05/06 11:25:32;;;;;;;4.75;4.35;;;14.20;64.20;;;;;;6213776;23;20004;-66
2021/05/06 11:28:25;;;;;;;5.63;4.88;;;14.00;64.70;;;;;;6213824;23;20008;-66
2021/05/06 11:30:53;;;;;;;7.72;5.53;;;13.80;64.00;;;;;;6198165;23;20018;-67
2021/05/06 11:33:21;;;;;;;5.10;4.60;;;13.50;63.80;;;;;;6215221;23;19996;-66
2021/05/06 11:35:56;;;;;;;5.40;4.90;;;13.40;64.90;;;;;;6214927;23;20079;-64
2021/05/06 11:38:51;;;;;;;5.13;4.63;;;13.20;63.10;;;;;;6213083;23;20009;-68
2021/05/06 11:41:29;;;;;;;5.22;4.72;;;13.10;63.30;;;;;;6196272;23;20004;-67
2021/05/06 11:44:07;;;;;;;4.70;4.30;;;13.10;64.60;;;;;;6214338;23;20038;-66
2021/05/06 11:46:39;;;;;;;4.45;4.03;;;13.30;65.00;;;;;;6213345;23;20009;-67
2021/05/06 11:49:10;;;;;;;6.20;5.60;;;13.60;65.30;;;;;;6213638;23;20430;-66
2021/05/06 11:51:38;;;;;;;6.80;5.57;;;13.80;63.00;;;;;;6214144;23;19998;-67
2021/05/06 11:54:20;;;;;;;7.07;6.38;;;14.00;62.20;;;;;;6215024;23;20016;-65
2021/05/06 11:56:50;;;;;;;8.75;6.70;;;14.20;62.30;;;;;;6213208;23;19997;-65
2021/05/06 11:59:20;;;;;;;7.53;6.72;;;14.40;60.90;;;;;;6213891;23;20306;-64
2021/05/06 12:01:47;;;;;;;7.78;6.72;;;14.60;59.90;;;;;;6213058;23;20001;-66
2021/05/06 12:04:27;;;;;;;7.78;6.30;;;14.70;58.60;;;;;;6215105;23;20031;-65
2021/05/06 12:06:54;;;;;;;7.60;6.90;;;15.00;58.80;;;;;;6212459;23;20040;-66
2021/05/06 12:09:28;;;;;;;7.45;6.22;;;15.10;56.90;;;;;;6213712;23;20011;-66
2021/05/06 12:11:54;;;;;;;7.20;6.07;;;15.20;55.20;;;;;;6214700;23;20421;-67
2021/05/06 12:14:30;;;;;;;6.15;5.53;;;15.30;55.30;;;;;;6213601;23;20009;-66
2021/05/06 12:16:56;;;;;;;5.85;5.20;;;15.50;54.90;;;;;;6214628;23;20376;-65
2021/05/06 12:19:21;;;;;;;6.97;5.75;;;15.60;54.40;;;;;;6214008;23;20035;-66
2021/05/06 12:21:53;;;;;;;7.30;5.00;;;15.70;54.70;;;;;;6214748;23;20024;-66
2021/05/06 12:24:32;;;;;;;6.93;5.50;;;15.90;54.70;;;;;;6213094;23;20020;-64
2021/05/06 12:27:19;;;;;;;5.93;5.32;;;15.90;53.20;;;;;;6213773;23;20001;-67
2021/05/06 12:29:46;;;;;;;5.60;4.57;;;15.90;52.80;;;;;;6213009;23;20028;-66
2021/05/06 12:32:23;;;;;;;4.63;4.22;;;15.50;52.20;;;;;;6214698;23;19997;-65
2021/05/06 12:34:49;;;;;;;3.90;3.60;;;14.90;54.80;;;;;;6213746;23;20099;-65
2021/05/06 12:37:15;;;;;;;4.00;3.60;;;14.40;56.90;;;;;;6214525;23;20426;-66
2021/05/06 12:39:42;;;;;;;5.03;3.95;;;13.80;58.40;;;;;;6214368;23;20004;-65
2021/05/06 12:42:08;;;;;;;5.13;4.28;;;13.00;60.50;;;;;;6213975;23;20001;-66
2021/05/06 12:44:43;;;;;;;4.43;3.65;;;12.30;63.00;;;;;;6214220;23;20080;-67
2021/05/06 12:47:22;;;;;;;5.43;4.30;;;11.70;65.20;;;;;;6213658;23;19996;-67
2021/05/06 12:49:50;;;;;;;5.07;4.57;;;11.10;67.10;;;;;;6214304;23;20456;-68
2021/05/06 12:52:48;;;;;;;4.65;4.10;;;10.80;69.80;;;;;;6214245;23;20016;-67
2021/05/06 12:55:22;;;;;;;4.28;3.83;;;10.70;70.50;;;;;;6148388;23;20099;-66
2021/05/06 12:58:12;;;;;;;7.95;4.40;;;10.70;71.50;;;;;;6214132;23;20001;-69
2021/05/06 13:00:38;;;;;;;5.32;4.88;;;11.00;71.90;;;;;;6197546;23;20358;-68
2021/05/06 13:03:06;;;;;;;6.28;4.88;;;11.20;71.70;;;;;;6213461;23;20012;-67
2021/05/06 13:05:37;;;;;;;5.43;4.93;;;11.40;71.40;;;;;;6214124;23;20000;-66
2021/05/06 13:08:04;;;;;;;20.45;19.05;;;11.60;70.50;;;;;;6214554;23;20011;-65
2021/05/06 13:10:30;;;;;;;7.00;5.40;;;11.60;69.70;;;;;;6212130;23;19997;-66
2021/05/06 13:12:56;;;;;;;7.32;5.53;;;11.70;70.00;;;;;;6214294;23;20051;-67
2021/05/06 13:15:22;;;;;;;8.77;5.75;;;11.80;70.20;;;;;;6213441;23;20020;-67
2021/05/06 13:17:48;;;;;;;6.40;5.75;;;12.10;69.80;;;;;;6214244;23;20028;-66
2021/05/06 13:20:26;;;;;;;8.32;5.35;;;12.20;68.10;;;;;;6214287;23;20465;-66
2021/05/06 13:23:02;;;;;;;6.38;5.78;;;12.20;68.20;;;;;;6211923;23;20001;-64
2021/05/06 13:25:41;;;;;;;6.03;5.53;;;12.50;69.00;;;;;;6212818;23;20004;-68
2021/05/06 13:28:07;;;;;;;6.78;5.78;;;12.80;67.50;;;;;;6212855;23;20001;-67
2021/05/06 13:30:33;;;;;;;8.43;5.20;;;13.00;65.30;;;;;;6213343;23;20483;-67
2021/05/06 13:33:20;;;;;;;6.78;6.00;;;13.00;65.10;;;;;;6212670;23;20064;-67
2021/05/06 13:36:05;;;;;;;7.80;6.57;;;13.30;65.30;;;;;;6214156;23;20063;-66
2021/05/06 13:38:50;;;;;;;6.28;5.72;;;13.50;64.50;;;;;;6213583;23;20004;-64
2021/05/06 13:41:16;;;;;;;7.10;6.40;;;13.70;64.00;;;;;;6212786;23;20004;-65
2021/05/06 13:43:42;;;;;;;7.45;6.20;;;13.80;63.20;;;;;;6213231;23;20009;-65
2021/05/06 13:46:09;;;;;;;6.70;6.00;;;13.90;63.80;;;;;;6214333;23;20026;-66
2021/05/06 13:48:36;;;;;;;6.93;6.15;;;14.00;62.90;;;;;;6213962;23;20028;-65
2021/05/06 13:51:02;;;;;;;6.75;5.78;;;13.90;61.90;;;;;;6213175;23;20004;-65
2021/05/06 13:53:28;;;;;;;5.68;5.18;;;13.80;61.40;;;;;;6214066;23;20072;-65
2021/05/06 13:55:53;;;;;;;5.80;5.22;;;13.50;61.70;;;;;;6213605;23;20082;-66
2021/05/06 13:58:19;;;;;;;7.70;5.93;;;13.20;62.00;;;;;;6213475;23;20001;-66
2021/05/06 14:00:45;;;;;;;5.82;5.32;;;13.00;62.60;;;;;;6214248;23;20059;-66
2021/05/06 14:03:10;;;;;;;6.82;5.40;;;12.70;61.60;;;;;;6215067;23;20005;-66
2021/05/06 14:05:36;;;;;;;7.43;4.95;;;12.50;62.20;;;;;;6215046;23;20076;-65
2021/05/06 14:08:02;;;;;;;6.63;5.20;;;12.40;63.30;;;;;;6214424;23;20059;-66
2021/05/06 14:10:27;;;;;;;5.45;4.95;;;12.40;64.30;;;;;;6216261;23;20004;-65
2021/05/06 14:12:53;;;;;;;5.78;5.18;;;12.30;63.80;;;;;;6215478;23;20329;-65
2021/05/06 14:15:19;;;;;;;5.55;5.03;;;12.30;64.20;;;;;;6215921;23;20369;-65
2021/05/06 14:17:44;;;;;;;5.78;5.20;;;12.20;64.20;;;;;;6216050;23;20417;-65
2021/05/06 14:20:10;;;;;;;6.03;5.43;;;12.20;64.00;;;;;;6215231;23;20004;-66
2021/05/06 14:22:36;;;;;;;7.82;6.18;;;12.10;64.50;;;;;;6214149;23;20088;-66
2021/05/06 14:25:02;;;;;;;7.95;6.22;;;12.20;64.20;;;;;;6215918;23;20036;-66
2021/05/06 14:27:27;;;;;;;8.52;6.22;;;12.20;64.00;;;;;;6215313;23;20350;-66
2021/05/06 14:29:53;;;;;;;6.93;6.32;;;12.30;64.20;;;;;;6214272;23;20011;-68
2021/05/06 14:32:18;;;;;;;6.75;6.00;;;12.30;65.80;;;;;;6215896;23;20001;-65
2021/05/06 14:34:44;;;;;;;7.78;6.13;;;12.40;65.60;;;;;;6214754;23;20011;-66
2021/05/06 14:37:09;;;;;;;8.73;6.85;;;12.40;65.50;;;;;;6215845;23;20001;-66
2021/05/06 14:39:35;;;;;;;8.32;7.43;;;12.40;65.20;;;;;;6215621;23;20084;-65
2021/05/06 14:42:00;;;;;;;7.93;6.93;;;12.40;64.80;;;;;;6214929;23;20004;-66
2021/05/06 14:44:26;;;;;;;9.73;7.63;;;12.40;65.00;;;;;;6215903;23;20030;-65
2021/05/06 14:46:52;;;;;;;7.80;7.10;;;12.50;66.30;;;;;;6214867;23;19993;-66
2021/05/06 14:49:18;;;;;;;8.20;6.82;;;12.50;67.20;;;;;;6215898;23;20005;-66
2021/05/06 14:51:44;;;;;;;9.93;7.32;;;12.60;65.50;;;;;;6215804;23;20307;-66
2021/05/06 14:54:09;;;;;;;8.75;7.25;;;12.60;65.30;;;;;;6214625;23;20009;-65
2021/05/06 14:56:35;;;;;;;7.40;6.68;;;12.60;64.60;;;;;;6215698;23;20088;-66
2021/05/06 14:59:00;;;;;;;6.88;6.18;;;12.70;63.60;;;;;;6215474;23;20008;-64
2021/05/06 15:01:26;;;;;;;8.38;6.80;;;12.70;64.90;;;;;;6213452;23;20001;-65
2021/05/06 15:03:52;;;;;;;7.68;6.47;;;12.90;65.70;;;;;;6215437;23;20009;-65
2021/05/06 15:06:17;;;;;;;7.70;6.90;;;13.10;67.40;;;;;;6215572;23;19997;-66
2021/05/06 15:08:43;;;;;;;7.50;6.80;;;13.20;69.00;;;;;;6212816;23;20047;-68
2021/05/06 15:11:12;;;;;;;7.80;7.10;;;13.40;69.50;;;;;;6213780;23;19997;-66
2021/05/06 15:13:37;;;;;;;7.75;6.95;;;13.60;69.70;;;;;;6213412;23;20001;-65
2021/05/06 15:16:03;;;;;;;9.35;7.32;;;13.70;69.10;;;;;;6214044;23;20016;-66
2021/05/06 15:18:29;;;;;;;7.40;6.30;;;13.80;68.00;;;;;;6215477;23;20001;-65
2021/05/06 15:20:54;;;;;;;9.20;6.72;;;13.80;64.40;;;;;;6214934;23;20005;-64
2021/05/06 15:23:20;;;;;;;10.32;7.40;;;13.80;63.80;;;;;;6214632;23;19997;-64
2021/05/06 15:25:46;;;;;;;8.00;7.20;;;13.80;63.90;;;;;;6210925;23;20414;-68
2021/05/06 15:28:13;;;;;;;7.68;6.93;;;13.80;64.40;;;;;;6214191;23;20012;-67
2021/05/06 15:30:39;;;;;;;8.20;7.40;;;13.80;64.00;;;;;;6213980;23;20001;-67
2021/05/06 15:33:04;;;;;;;8.25;6.50;;;13.70;62.70;;;;;;6214198;23;20011;-68
2021/05/06 15:35:30;;;;;;;7.55;6.85;;;13.70;62.00;;;;;;6214816;23;20016;-66
2021/05/06 15:37:56;;;;;;;7.28;6.55;;;13.50;59.50;;;;;;6213745;23;19997;-66
2021/05/06 15:40:21;;;;;;;8.05;7.25;;;13.50;60.30;;;;;;6215122;23;20005;-67
2021/05/06 15:42:47;;;;;;;6.63;5.93;;;13.50;60.50;;;;;;6213853;23;20059;-67
2021/05/06 15:45:14;;;;;;;6.97;6.22;;;13.80;60.10;;;;;;6213468;23;20012;-68
2021/05/06 15:47:39;;;;;;;7.30;6.40;;;13.80;58.80;;;;;;6214984;23;20008;-67
2021/05/06 15:50:08;;;;;;;7.10;6.22;;;13.80;59.30;;;;;;6214300;23;20089;-67
2021/05/06 15:52:34;;;;;;;8.43;6.38;;;13.80;59.00;;;;;;6214396;23;20001;-63
2021/05/06 15:54:59;;;;;;;6.53;5.57;;;13.60;58.90;;;;;;6214884;23;20047;-68
2021/05/06 15:57:25;;;;;;;7.15;6.30;;;13.50;59.80;;;;;;6214642;23;20447;-65